sensor_id;sensor_type;location;lat;lon;timestamp;P1;durP1;ratioP1;P2;durP2;ratioP2
18076;SDS011;9165;45.714;11.362;2023-03-14T00:01:28;18.93;;;12.30;;
18076;SDS011;9165;45.714;11.362;2023-03-14T00:03:54;18.10;;;12.67;;
18076;SDS011;9165;45.714;11.362;2023-03-14T00:06:21;17.03;;;12.40;;
18076;SDS011;9165;45.714;11.362;2023-03-14T00:08:47;16.77;;;12.77;;
18076;SDS011;9165;45.714;11.362;2023-03-14T00:11:16;23.50;;;14.50;;
18076;SDS011;9165;45.714;11.362;2023-03-14T00:13:44;26.53;;;14.83;;
18076;SDS011;9165;45.714;11.362;2023-03-14T00:16:12;20.37;;;13.53;;
18076;SDS011;9165;45.714;11.362;2023-03-14T00:18:39;23.60;;;15.13;;
18076;SDS011;9165;45.714;11.362;2023-03-14T00:21:06;21.23;;;14.80;;
18076;SDS011;9165;45.714;11.362;2023-03-14T00:23:34;19.40;;;13.97;;
18076;SDS011;9165;45.714;11.362;2023-03-14T00:26:01;20.17;;;13.70;;
18076;SDS011;9165;45.714;11.362;2023-03-14T00:28:30;22.07;;;13.97;;
18076;SDS011;9165;45.714;11.362;2023-03-14T00:30:57;20.27;;;13.90;;
18076;SDS011;9165;45.714;11.362;2023-03-14T00:33:23;22.13;;;14.70;;
18076;SDS011;9165;45.714;11.362;2023-03-14T00:35:53;22.37;;;14.20;;
18076;SDS011;9165;45.714;11.362;2023-03-14T00:38:20;23.37;;;14.70;;
18076;SDS011;9165;45.714;11.362;2023-03-14T00:40:47;21.17;;;14.13;;
18076;SDS011;9165;45.714;11.362;2023-03-14T00:43:13;20.10;;;14.20;;
18076;SDS011;9165;45.714;11.362;2023-03-14T00:45:41;25.63;;;15.13;;
18076;SDS011;9165;45.714;11.362;2023-03-14T00:48:08;24.77;;;14.43;;
18076;SDS011;9165;45.714;11.362;2023-03-14T00:50:34;22.10;;;14.13;;
18076;SDS011;9165;45.714;11.362;2023-03-14T00:53:01;21.10;;;15.03;;
18076;SDS011;9165;45.714;11.362;2023-03-14T00:55:27;19.80;;;14.33;;
18076;SDS011;9165;45.714;11.362;2023-03-14T00:57:54;20.83;;;15.00;;
18076;SDS011;9165;45.714;11.362;2023-03-14T01:00:20;20.33;;;15.10;;
18076;SDS011;9165;45.714;11.362;2023-03-14T01:02:50;25.70;;;16.60;;
18076;SDS011;9165;45.714;11.362;2023-03-14T01:05:16;22.70;;;15.50;;
18076;SDS011;9165;45.714;11.362;2023-03-14T01:07:43;26.20;;;16.63;;
18076;SDS011;9165;45.714;11.362;2023-03-14T01:10:10;22.03;;;16.00;;
18076;SDS011;9165;45.714;11.362;2023-03-14T01:12:36;22.40;;;15.63;;
18076;SDS011;9165;45.714;11.362;2023-03-14T01:15:03;22.70;;;15.77;;
18076;SDS011;9165;45.714;11.362;2023-03-14T01:17:30;24.80;;;16.07;;
18076;SDS011;9165;45.714;11.362;2023-03-14T01:19:58;21.07;;;15.43;;
18076;SDS011;9165;45.714;11.362;2023-03-14T01:22:25;22.40;;;16.00;;
18076;SDS011;9165;45.714;11.362;2023-03-14T01:24:51;21.57;;;16.00;;
18076;SDS011;9165;45.714;11.362;2023-03-14T01:27:18;27.33;;;16.13;;
18076;SDS011;9165;45.714;11.362;2023-03-14T01:29:44;24.23;;;15.90;;
18076;SDS011;9165;45.714;11.362;2023-03-14T01:32:12;24.97;;;17.00;;
18076;SDS011;9165;45.714;11.362;2023-03-14T01:34:38;20.70;;;16.03;;
18076;SDS011;9165;45.714;11.362;2023-03-14T01:37:06;23.03;;;15.93;;
18076;SDS011;9165;45.714;11.362;2023-03-14T01:39:33;29.17;;;16.83;;
18076;SDS011;9165;45.714;11.362;2023-03-14T01:42:00;24.13;;;15.83;;
18076;SDS011;9165;45.714;11.362;2023-03-14T01:44:26;22.17;;;17.00;;
18076;SDS011;9165;45.714;11.362;2023-03-14T01:46:53;23.33;;;15.23;;
18076;SDS011;9165;45.714;11.362;2023-03-14T01:49:21;26.73;;;16.43;;
18076;SDS011;9165;45.714;11.362;2023-03-14T01:51:50;25.37;;;16.73;;
18076;SDS011;9165;45.714;11.362;2023-03-14T01:54:20;22.43;;;16.20;;
18076;SDS011;9165;45.714;11.362;2023-03-14T01:56:50;21.70;;;16.07;;
18076;SDS011;9165;45.714;11.362;2023-03-14T01:59:18;24.80;;;17.60;;
18076;SDS011;9165;45.714;11.362;2023-03-14T02:01:45;22.43;;;15.63;;
18076;SDS011;9165;45.714;11.362;2023-03-14T02:04:12;24.77;;;17.00;;
18076;SDS011;9165;45.714;11.362;2023-03-14T02:06:41;24.23;;;16.90;;
18076;SDS011;9165;45.714;11.362;2023-03-14T02:09:10;22.93;;;16.17;;
18076;SDS011;9165;45.714;11.362;2023-03-14T02:11:38;24.27;;;17.27;;
18076;SDS011;9165;45.714;11.362;2023-03-14T02:14:05;23.80;;;15.90;;
18076;SDS011;9165;45.714;11.362;2023-03-14T02:16:32;26.10;;;16.97;;
18076;SDS011;9165;45.714;11.362;2023-03-14T02:18:58;25.63;;;16.53;;
18076;SDS011;9165;45.714;11.362;2023-03-14T02:21:27;28.30;;;17.20;;
18076;SDS011;9165;45.714;11.362;2023-03-14T02:23:58;28.40;;;16.80;;
18076;SDS011;9165;45.714;11.362;2023-03-14T02:26:31;28.07;;;15.67;;
18076;SDS011;9165;45.714;11.362;2023-03-14T02:29:02;22.97;;;17.87;;
18076;SDS011;9165;45.714;11.362;2023-03-14T02:31:28;28.30;;;18.57;;
18076;SDS011;9165;45.714;11.362;2023-03-14T02:33:55;26.57;;;17.83;;
18076;SDS011;9165;45.714;11.362;2023-03-14T02:36:22;22.23;;;16.40;;
18076;SDS011;9165;45.714;11.362;2023-03-14T02:38:51;25.03;;;17.10;;
18076;SDS011;9165;45.714;11.362;2023-03-14T02:41:18;27.93;;;18.47;;
18076;SDS011;9165;45.714;11.362;2023-03-14T02:43:45;28.20;;;17.77;;
18076;SDS011;9165;45.714;11.362;2023-03-14T02:46:13;26.50;;;17.87;;
18076;SDS011;9165;45.714;11.362;2023-03-14T02:48:41;23.43;;;15.83;;
18076;SDS011;9165;45.714;11.362;2023-03-14T02:51:09;25.60;;;16.47;;
18076;SDS011;9165;45.714;11.362;2023-03-14T02:53:37;23.20;;;16.83;;
18076;SDS011;9165;45.714;11.362;2023-03-14T02:56:05;23.10;;;16.60;;
18076;SDS011;9165;45.714;11.362;2023-03-14T02:58:31;21.63;;;14.93;;
18076;SDS011;9165;45.714;11.362;2023-03-14T03:00:58;25.07;;;16.93;;
18076;SDS011;9165;45.714;11.362;2023-03-14T03:03:26;22.47;;;16.73;;
18076;SDS011;9165;45.714;11.362;2023-03-14T03:05:53;26.87;;;16.07;;
18076;SDS011;9165;45.714;11.362;2023-03-14T03:08:21;22.87;;;17.17;;
18076;SDS011;9165;45.714;11.362;2023-03-14T03:10:48;21.93;;;15.53;;
18076;SDS011;9165;45.714;11.362;2023-03-14T03:13:15;22.10;;;17.23;;
18076;SDS011;9165;45.714;11.362;2023-03-14T03:15:42;27.97;;;16.93;;
18076;SDS011;9165;45.714;11.362;2023-03-14T03:18:08;23.60;;;15.93;;
18076;SDS011;9165;45.714;11.362;2023-03-14T03:20:36;22.47;;;15.47;;
18076;SDS011;9165;45.714;11.362;2023-03-14T03:23:03;25.60;;;16.67;;
18076;SDS011;9165;45.714;11.362;2023-03-14T03:25:30;23.07;;;15.97;;
18076;SDS011;9165;45.714;11.362;2023-03-14T03:27:57;27.23;;;16.67;;
18076;SDS011;9165;45.714;11.362;2023-03-14T03:30:24;23.13;;;15.90;;
18076;SDS011;9165;45.714;11.362;2023-03-14T03:32:50;24.70;;;16.73;;
18076;SDS011;9165;45.714;11.362;2023-03-14T03:35:17;23.60;;;16.80;;
18076;SDS011;9165;45.714;11.362;2023-03-14T03:37:45;26.47;;;17.17;;
18076;SDS011;9165;45.714;11.362;2023-03-14T03:40:11;30.50;;;17.43;;
18076;SDS011;9165;45.714;11.362;2023-03-14T03:42:38;24.53;;;17.03;;
18076;SDS011;9165;45.714;11.362;2023-03-14T03:45:05;25.67;;;17.23;;
18076;SDS011;9165;45.714;11.362;2023-03-14T03:47:31;23.53;;;16.83;;
18076;SDS011;9165;45.714;11.362;2023-03-14T03:49:58;23.33;;;17.47;;
18076;SDS011;9165;45.714;11.362;2023-03-14T03:52:24;26.93;;;17.53;;
18076;SDS011;9165;45.714;11.362;2023-03-14T03:54:52;27.37;;;17.80;;
18076;SDS011;9165;45.714;11.362;2023-03-14T03:57:19;24.20;;;16.63;;
18076;SDS011;9165;45.714;11.362;2023-03-14T03:59:45;24.03;;;16.87;;
18076;SDS011;9165;45.714;11.362;2023-03-14T04:02:12;25.60;;;17.13;;
18076;SDS011;9165;45.714;11.362;2023-03-14T04:04:38;20.67;;;16.37;;
18076;SDS011;9165;45.714;11.362;2023-03-14T04:07:05;25.30;;;17.83;;
18076;SDS011;9165;45.714;11.362;2023-03-14T04:09:32;24.03;;;17.20;;
18076;SDS011;9165;45.714;11.362;2023-03-14T04:11:59;24.97;;;16.93;;
18076;SDS011;9165;45.714;11.362;2023-03-14T04:14:26;26.23;;;17.80;;
18076;SDS011;9165;45.714;11.362;2023-03-14T04:16:53;26.50;;;16.67;;
18076;SDS011;9165;45.714;11.362;2023-03-14T04:19:20;25.37;;;17.67;;
18076;SDS011;9165;45.714;11.362;2023-03-14T04:21:46;22.73;;;17.63;;
18076;SDS011;9165;45.714;11.362;2023-03-14T04:24:13;26.87;;;16.87;;
18076;SDS011;9165;45.714;11.362;2023-03-14T04:26:39;25.30;;;17.67;;
18076;SDS011;9165;45.714;11.362;2023-03-14T04:29:08;26.37;;;17.83;;
18076;SDS011;9165;45.714;11.362;2023-03-14T04:31:34;25.73;;;18.63;;
18076;SDS011;9165;45.714;11.362;2023-03-14T04:34:01;24.90;;;17.73;;
18076;SDS011;9165;45.714;11.362;2023-03-14T04:36:27;24.10;;;18.63;;
18076;SDS011;9165;45.714;11.362;2023-03-14T04:38:54;26.27;;;17.63;;
18076;SDS011;9165;45.714;11.362;2023-03-14T04:41:20;24.57;;;17.50;;
18076;SDS011;9165;45.714;11.362;2023-03-14T04:43:47;25.37;;;17.80;;
18076;SDS011;9165;45.714;11.362;2023-03-14T04:46:15;23.90;;;16.93;;
18076;SDS011;9165;45.714;11.362;2023-03-14T04:48:41;24.60;;;17.80;;
18076;SDS011;9165;45.714;11.362;2023-03-14T04:51:08;22.20;;;16.23;;
18076;SDS011;9165;45.714;11.362;2023-03-14T04:53:35;23.43;;;16.40;;
18076;SDS011;9165;45.714;11.362;2023-03-14T04:56:02;24.47;;;17.47;;
18076;SDS011;9165;45.714;11.362;2023-03-14T04:58:28;23.97;;;16.83;;
18076;SDS011;9165;45.714;11.362;2023-03-14T05:00:55;23.90;;;16.13;;
18076;SDS011;9165;45.714;11.362;2023-03-14T05:03:23;20.47;;;15.53;;
18076;SDS011;9165;45.714;11.362;2023-03-14T05:05:49;23.07;;;16.37;;
18076;SDS011;9165;45.714;11.362;2023-03-14T05:08:16;25.53;;;16.53;;
18076;SDS011;9165;45.714;11.362;2023-03-14T05:10:42;22.53;;;15.97;;
18076;SDS011;9165;45.714;11.362;2023-03-14T05:13:09;24.07;;;15.97;;
18076;SDS011;9165;45.714;11.362;2023-03-14T05:15:36;22.07;;;15.63;;
18076;SDS011;9165;45.714;11.362;2023-03-14T05:18:02;24.37;;;17.10;;
18076;SDS011;9165;45.714;11.362;2023-03-14T05:20:31;23.13;;;15.13;;
18076;SDS011;9165;45.714;11.362;2023-03-14T05:22:58;21.50;;;14.73;;
18076;SDS011;9165;45.714;11.362;2023-03-14T05:25:24;23.97;;;15.17;;
18076;SDS011;9165;45.714;11.362;2023-03-14T05:27:53;22.73;;;15.67;;
18076;SDS011;9165;45.714;11.362;2023-03-14T05:30:20;22.93;;;15.67;;
18076;SDS011;9165;45.714;11.362;2023-03-14T05:32:46;22.93;;;15.03;;
18076;SDS011;9165;45.714;11.362;2023-03-14T05:35:13;23.77;;;14.40;;
18076;SDS011;9165;45.714;11.362;2023-03-14T05:37:41;24.03;;;15.93;;
18076;SDS011;9165;45.714;11.362;2023-03-14T05:40:08;20.97;;;14.43;;
18076;SDS011;9165;45.714;11.362;2023-03-14T05:42:35;24.90;;;15.77;;
18076;SDS011;9165;45.714;11.362;2023-03-14T05:45:01;19.40;;;14.83;;
18076;SDS011;9165;45.714;11.362;2023-03-14T05:47:28;19.97;;;13.93;;
18076;SDS011;9165;45.714;11.362;2023-03-14T05:49:54;20.43;;;14.83;;
18076;SDS011;9165;45.714;11.362;2023-03-14T05:52:21;25.90;;;15.17;;
18076;SDS011;9165;45.714;11.362;2023-03-14T05:54:49;22.03;;;14.83;;
18076;SDS011;9165;45.714;11.362;2023-03-14T05:57:15;27.73;;;15.10;;
18076;SDS011;9165;45.714;11.362;2023-03-14T05:59:42;20.17;;;14.83;;
18076;SDS011;9165;45.714;11.362;2023-03-14T06:02:09;23.63;;;15.10;;
18076;SDS011;9165;45.714;11.362;2023-03-14T06:04:35;23.67;;;14.50;;
18076;SDS011;9165;45.714;11.362;2023-03-14T06:07:02;27.30;;;15.47;;
18076;SDS011;9165;45.714;11.362;2023-03-14T06:09:29;27.00;;;14.27;;
18076;SDS011;9165;45.714;11.362;2023-03-14T06:11:57;25.47;;;14.70;;
18076;SDS011;9165;45.714;11.362;2023-03-14T06:14:24;24.97;;;16.47;;
18076;SDS011;9165;45.714;11.362;2023-03-14T06:16:50;31.00;;;16.77;;
18076;SDS011;9165;45.714;11.362;2023-03-14T06:19:18;30.23;;;17.47;;
18076;SDS011;9165;45.714;11.362;2023-03-14T06:21:44;28.13;;;16.13;;
18076;SDS011;9165;45.714;11.362;2023-03-14T06:24:11;27.67;;;17.27;;
18076;SDS011;9165;45.714;11.362;2023-03-14T06:26:37;23.30;;;16.67;;
18076;SDS011;9165;45.714;11.362;2023-03-14T06:29:05;27.50;;;17.13;;
18076;SDS011;9165;45.714;11.362;2023-03-14T06:31:32;30.07;;;16.07;;
18076;SDS011;9165;45.714;11.362;2023-03-14T06:33:59;24.37;;;16.37;;
18076;SDS011;9165;45.714;11.362;2023-03-14T06:36:25;24.30;;;17.93;;
18076;SDS011;9165;45.714;11.362;2023-03-14T06:38:52;28.20;;;17.90;;
18076;SDS011;9165;45.714;11.362;2023-03-14T06:41:18;29.73;;;19.60;;
18076;SDS011;9165;45.714;11.362;2023-03-14T06:43:45;28.70;;;17.00;;
18076;SDS011;9165;45.714;11.362;2023-03-14T06:46:13;29.20;;;19.43;;
18076;SDS011;9165;45.714;11.362;2023-03-14T06:48:40;26.97;;;17.83;;
18076;SDS011;9165;45.714;11.362;2023-03-14T06:51:07;31.30;;;19.90;;
18076;SDS011;9165;45.714;11.362;2023-03-14T06:53:33;31.93;;;18.77;;
18076;SDS011;9165;45.714;11.362;2023-03-14T06:56:00;26.93;;;18.47;;
18076;SDS011;9165;45.714;11.362;2023-03-14T06:58:26;24.73;;;16.23;;
18076;SDS011;9165;45.714;11.362;2023-03-14T07:00:53;23.63;;;16.90;;
18076;SDS011;9165;45.714;11.362;2023-03-14T07:03:21;26.43;;;16.27;;
18076;SDS011;9165;45.714;11.362;2023-03-14T07:05:48;27.03;;;17.10;;
18076;SDS011;9165;45.714;11.362;2023-03-14T07:08:14;25.70;;;17.73;;
18076;SDS011;9165;45.714;11.362;2023-03-14T07:10:41;25.53;;;18.07;;
18076;SDS011;9165;45.714;11.362;2023-03-14T07:13:07;26.07;;;18.30;;
18076;SDS011;9165;45.714;11.362;2023-03-14T07:15:34;25.17;;;17.97;;
18076;SDS011;9165;45.714;11.362;2023-03-14T07:18:00;27.97;;;18.77;;
18076;SDS011;9165;45.714;11.362;2023-03-14T07:20:28;27.83;;;18.30;;
18076;SDS011;9165;45.714;11.362;2023-03-14T07:22:57;25.90;;;19.00;;
18076;SDS011;9165;45.714;11.362;2023-03-14T07:25:24;25.20;;;17.70;;
18076;SDS011;9165;45.714;11.362;2023-03-14T07:27:51;26.33;;;18.70;;
18076;SDS011;9165;45.714;11.362;2023-03-14T07:30:18;31.73;;;18.83;;
18076;SDS011;9165;45.714;11.362;2023-03-14T07:32:44;31.20;;;19.13;;
18076;SDS011;9165;45.714;11.362;2023-03-14T07:35:11;30.30;;;19.67;;
18076;SDS011;9165;45.714;11.362;2023-03-14T07:37:39;26.00;;;18.97;;
18076;SDS011;9165;45.714;11.362;2023-03-14T07:40:06;27.60;;;17.73;;
18076;SDS011;9165;45.714;11.362;2023-03-14T07:42:33;26.33;;;17.53;;
18076;SDS011;9165;45.714;11.362;2023-03-14T07:44:59;31.73;;;17.97;;
18076;SDS011;9165;45.714;11.362;2023-03-14T07:47:26;26.97;;;17.80;;
18076;SDS011;9165;45.714;11.362;2023-03-14T07:49:52;28.53;;;19.07;;
18076;SDS011;9165;45.714;11.362;2023-03-14T07:52:19;26.30;;;19.03;;
18076;SDS011;9165;45.714;11.362;2023-03-14T07:54:46;27.70;;;18.87;;
18076;SDS011;9165;45.714;11.362;2023-03-14T07:57:13;25.43;;;17.13;;
18076;SDS011;9165;45.714;11.362;2023-03-14T07:59:40;29.00;;;18.33;;
18076;SDS011;9165;45.714;11.362;2023-03-14T08:02:07;26.47;;;17.77;;
18076;SDS011;9165;45.714;11.362;2023-03-14T08:04:36;30.40;;;18.97;;
18076;SDS011;9165;45.714;11.362;2023-03-14T08:07:03;27.07;;;19.27;;
18076;SDS011;9165;45.714;11.362;2023-03-14T08:09:30;28.63;;;17.60;;
18076;SDS011;9165;45.714;11.362;2023-03-14T08:11:58;25.67;;;16.83;;
18076;SDS011;9165;45.714;11.362;2023-03-14T08:14:24;29.57;;;17.83;;
18076;SDS011;9165;45.714;11.362;2023-03-14T08:16:51;25.23;;;16.43;;
18076;SDS011;9165;45.714;11.362;2023-03-14T08:19:18;28.00;;;17.23;;
18076;SDS011;9165;45.714;11.362;2023-03-14T08:21:44;25.50;;;18.60;;
18076;SDS011;9165;45.714;11.362;2023-03-14T08:24:11;25.07;;;17.03;;
18076;SDS011;9165;45.714;11.362;2023-03-14T08:26:37;24.33;;;16.87;;
18076;SDS011;9165;45.714;11.362;2023-03-14T08:29:05;22.27;;;15.63;;
18076;SDS011;9165;45.714;11.362;2023-03-14T08:31:33;25.67;;;15.17;;
18076;SDS011;9165;45.714;11.362;2023-03-14T08:34:00;27.60;;;18.73;;
18076;SDS011;9165;45.714;11.362;2023-03-14T08:36:27;26.97;;;17.43;;
18076;SDS011;9165;45.714;11.362;2023-03-14T08:38:53;24.20;;;17.13;;
18076;SDS011;9165;45.714;11.362;2023-03-14T08:41:20;28.07;;;17.80;;
18076;SDS011;9165;45.714;11.362;2023-03-14T08:43:47;28.50;;;17.13;;
18076;SDS011;9165;45.714;11.362;2023-03-14T08:46:15;21.83;;;15.63;;
18076;SDS011;9165;45.714;11.362;2023-03-14T08:48:42;24.90;;;16.60;;
18076;SDS011;9165;45.714;11.362;2023-03-14T08:51:09;24.03;;;15.33;;
18076;SDS011;9165;45.714;11.362;2023-03-14T08:53:37;23.67;;;16.63;;
18076;SDS011;9165;45.714;11.362;2023-03-14T08:56:04;20.80;;;16.27;;
18076;SDS011;9165;45.714;11.362;2023-03-14T08:58:32;24.60;;;15.40;;
18076;SDS011;9165;45.714;11.362;2023-03-14T09:00:58;23.97;;;14.97;;
18076;SDS011;9165;45.714;11.362;2023-03-14T09:03:26;22.83;;;15.47;;
18076;SDS011;9165;45.714;11.362;2023-03-14T09:05:53;20.70;;;15.17;;
18076;SDS011;9165;45.714;11.362;2023-03-14T09:08:20;21.77;;;16.23;;
18076;SDS011;9165;45.714;11.362;2023-03-14T09:10:47;23.57;;;17.03;;
18076;SDS011;9165;45.714;11.362;2023-03-14T09:13:13;26.57;;;16.73;;
18076;SDS011;9165;45.714;11.362;2023-03-14T09:15:40;26.07;;;16.30;;
18076;SDS011;9165;45.714;11.362;2023-03-14T09:18:07;25.20;;;17.17;;
18076;SDS011;9165;45.714;11.362;2023-03-14T09:20:35;23.47;;;15.67;;
18076;SDS011;9165;45.714;11.362;2023-03-14T09:23:02;23.23;;;15.23;;
18076;SDS011;9165;45.714;11.362;2023-03-14T09:25:28;20.53;;;14.53;;
18076;SDS011;9165;45.714;11.362;2023-03-14T09:27:55;22.67;;;14.67;;
18076;SDS011;9165;45.714;11.362;2023-03-14T09:30:21;25.67;;;16.00;;
18076;SDS011;9165;45.714;11.362;2023-03-14T09:32:48;27.67;;;19.43;;
18076;SDS011;9165;45.714;11.362;2023-03-14T09:35:14;26.13;;;15.33;;
18076;SDS011;9165;45.714;11.362;2023-03-14T09:37:42;22.47;;;15.67;;
18076;SDS011;9165;45.714;11.362;2023-03-14T09:40:11;17.80;;;13.93;;
18076;SDS011;9165;45.714;11.362;2023-03-14T09:42:39;20.30;;;13.77;;
18076;SDS011;9165;45.714;11.362;2023-03-14T09:45:07;20.17;;;14.00;;
18076;SDS011;9165;45.714;11.362;2023-03-14T09:47:37;19.00;;;13.40;;
18076;SDS011;9165;45.714;11.362;2023-03-14T09:50:05;18.17;;;14.20;;
18076;SDS011;9165;45.714;11.362;2023-03-14T09:52:36;18.37;;;12.07;;
18076;SDS011;9165;45.714;11.362;2023-03-14T09:55:09;20.37;;;12.60;;
18076;SDS011;9165;45.714;11.362;2023-03-14T09:57:38;15.47;;;12.27;;
18076;SDS011;9165;45.714;11.362;2023-03-14T10:00:06;17.10;;;12.13;;
18076;SDS011;9165;45.714;11.362;2023-03-14T10:02:39;19.03;;;12.97;;
18076;SDS011;9165;45.714;11.362;2023-03-14T10:05:08;15.60;;;13.00;;
18076;SDS011;9165;45.714;11.362;2023-03-14T10:07:34;20.33;;;13.27;;
18076;SDS011;9165;45.714;11.362;2023-03-14T10:10:08;26.27;;;11.70;;
18076;SDS011;9165;45.714;11.362;2023-03-14T10:12:37;19.80;;;12.50;;
18076;SDS011;9165;45.714;11.362;2023-03-14T10:15:05;19.97;;;13.17;;
18076;SDS011;9165;45.714;11.362;2023-03-14T10:17:38;18.53;;;12.90;;
18076;SDS011;9165;45.714;11.362;2023-03-14T10:20:05;21.83;;;13.33;;
18076;SDS011;9165;45.714;11.362;2023-03-14T10:22:35;18.23;;;13.27;;
18076;SDS011;9165;45.714;11.362;2023-03-14T10:25:25;14.63;;;11.10;;
18076;SDS011;9165;45.714;11.362;2023-03-14T10:27:50;17.50;;;13.17;;
18076;SDS011;9165;45.714;11.362;2023-03-14T10:30:26;18.40;;;13.47;;
18076;SDS011;9165;45.714;11.362;2023-03-14T10:32:53;20.27;;;13.00;;
18076;SDS011;9165;45.714;11.362;2023-03-14T10:35:20;20.77;;;14.00;;
18076;SDS011;9165;45.714;11.362;2023-03-14T10:37:48;15.70;;;10.03;;
18076;SDS011;9165;45.714;11.362;2023-03-14T10:40:16;18.30;;;14.27;;
18076;SDS011;9165;45.714;11.362;2023-03-14T10:42:44;17.03;;;12.73;;
18076;SDS011;9165;45.714;11.362;2023-03-14T10:45:25;16.00;;;12.13;;
18076;SDS011;9165;45.714;11.362;2023-03-14T10:47:55;15.27;;;10.70;;
18076;SDS011;9165;45.714;11.362;2023-03-14T10:50:25;19.00;;;12.13;;
18076;SDS011;9165;45.714;11.362;2023-03-14T10:52:52;16.57;;;11.30;;
18076;SDS011;9165;45.714;11.362;2023-03-14T10:55:19;12.87;;;9.77;;
18076;SDS011;9165;45.714;11.362;2023-03-14T10:57:46;12.80;;;10.20;;
18076;SDS011;9165;45.714;11.362;2023-03-14T11:00:14;13.93;;;9.90;;
18076;SDS011;9165;45.714;11.362;2023-03-14T11:02:52;12.20;;;9.77;;
18076;SDS011;9165;45.714;11.362;2023-03-14T11:05:24;14.37;;;11.37;;
18076;SDS011;9165;45.714;11.362;2023-03-14T11:07:55;15.77;;;11.20;;
18076;SDS011;9165;45.714;11.362;2023-03-14T11:10:26;15.33;;;11.30;;
18076;SDS011;9165;45.714;11.362;2023-03-14T11:12:56;19.53;;;10.90;;
18076;SDS011;9165;45.714;11.362;2023-03-14T11:15:29;13.60;;;10.63;;
18076;SDS011;9165;45.714;11.362;2023-03-14T11:18:13;16.53;;;11.87;;
18076;SDS011;9165;45.714;11.362;2023-03-14T11:20:46;16.33;;;10.03;;
18076;SDS011;9165;45.714;11.362;2023-03-14T11:23:14;12.97;;;9.73;;
18076;SDS011;9165;45.714;11.362;2023-03-14T11:25:43;14.20;;;10.10;;
18076;SDS011;9165;45.714;11.362;2023-03-14T11:28:14;16.07;;;11.17;;
18076;SDS011;9165;45.714;11.362;2023-03-14T11:30:45;13.80;;;10.87;;
18076;SDS011;9165;45.714;11.362;2023-03-14T11:33:17;14.33;;;10.83;;
18076;SDS011;9165;45.714;11.362;2023-03-14T11:35:45;16.70;;;10.07;;
18076;SDS011;9165;45.714;11.362;2023-03-14T11:38:15;12.53;;;9.63;;
18076;SDS011;9165;45.714;11.362;2023-03-14T11:40:43;13.73;;;10.00;;
18076;SDS011;9165;45.714;11.362;2023-03-14T11:43:12;16.57;;;10.00;;
18076;SDS011;9165;45.714;11.362;2023-03-14T11:45:41;16.73;;;12.67;;
18076;SDS011;9165;45.714;11.362;2023-03-14T11:48:28;20.27;;;12.70;;
18076;SDS011;9165;45.714;11.362;2023-03-14T11:50:56;18.70;;;13.40;;
18076;SDS011;9165;45.714;11.362;2023-03-14T11:53:28;14.20;;;11.07;;
18076;SDS011;9165;45.714;11.362;2023-03-14T11:55:56;12.87;;;9.33;;
18076;SDS011;9165;45.714;11.362;2023-03-14T11:58:23;14.67;;;9.53;;
18076;SDS011;9165;45.714;11.362;2023-03-14T12:00:52;13.30;;;9.07;;
18076;SDS011;9165;45.714;11.362;2023-03-14T12:03:24;11.40;;;8.77;;
18076;SDS011;9165;45.714;11.362;2023-03-14T12:05:55;14.87;;;9.93;;
18076;SDS011;9165;45.714;11.362;2023-03-14T12:11:11;13.67;;;9.20;;
18076;SDS011;9165;45.714;11.362;2023-03-14T12:13:39;16.40;;;9.83;;
18076;SDS011;9165;45.714;11.362;2023-03-14T12:16:06;11.77;;;9.07;;
18076;SDS011;9165;45.714;11.362;2023-03-14T12:18:37;14.40;;;10.90;;
18076;SDS011;9165;45.714;11.362;2023-03-14T12:21:07;16.70;;;11.43;;
18076;SDS011;9165;45.714;11.362;2023-03-14T12:23:35;15.00;;;12.27;;
18076;SDS011;9165;45.714;11.362;2023-03-14T12:26:08;18.03;;;12.60;;
18076;SDS011;9165;45.714;11.362;2023-03-14T12:28:41;16.97;;;12.17;;
18076;SDS011;9165;45.714;11.362;2023-03-14T12:34:02;20.37;;;12.60;;
18076;SDS011;9165;45.714;11.362;2023-03-14T12:39:19;20.90;;;14.13;;
18076;SDS011;9165;45.714;11.362;2023-03-14T12:41:48;17.67;;;11.33;;
18076;SDS011;9165;45.714;11.362;2023-03-14T12:49:49;13.43;;;10.60;;
18076;SDS011;9165;45.714;11.362;2023-03-14T12:52:19;19.17;;;11.90;;
18076;SDS011;9165;45.714;11.362;2023-03-14T12:54:46;15.13;;;10.37;;
18076;SDS011;9165;45.714;11.362;2023-03-14T12:57:20;13.60;;;11.30;;
18076;SDS011;9165;45.714;11.362;2023-03-14T12:59:52;14.10;;;10.70;;
18076;SDS011;9165;45.714;11.362;2023-03-14T13:02:24;11.47;;;9.93;;
18076;SDS011;9165;45.714;11.362;2023-03-14T13:04:54;14.60;;;11.27;;
18076;SDS011;9165;45.714;11.362;2023-03-14T13:07:33;12.90;;;9.80;;
18076;SDS011;9165;45.714;11.362;2023-03-14T13:10:01;13.93;;;10.80;;
18076;SDS011;9165;45.714;11.362;2023-03-14T13:12:29;15.00;;;9.60;;
18076;SDS011;9165;45.714;11.362;2023-03-14T13:14:57;17.70;;;10.07;;
18076;SDS011;9165;45.714;11.362;2023-03-14T13:17:26;15.10;;;10.40;;
18076;SDS011;9165;45.714;11.362;2023-03-14T13:19:55;16.63;;;10.50;;
18076;SDS011;9165;45.714;11.362;2023-03-14T13:22:23;15.63;;;10.87;;
18076;SDS011;9165;45.714;11.362;2023-03-14T13:24:58;14.60;;;11.17;;
18076;SDS011;9165;45.714;11.362;2023-03-14T13:27:29;17.23;;;11.13;;
18076;SDS011;9165;45.714;11.362;2023-03-14T13:29:56;18.13;;;12.47;;
18076;SDS011;9165;45.714;11.362;2023-03-14T13:32:26;18.73;;;10.70;;
18076;SDS011;9165;45.714;11.362;2023-03-14T13:34:56;11.33;;;9.90;;
18076;SDS011;9165;45.714;11.362;2023-03-14T13:37:23;12.00;;;10.20;;
18076;SDS011;9165;45.714;11.362;2023-03-14T13:39:50;12.93;;;9.83;;
18076;SDS011;9165;45.714;11.362;2023-03-14T13:42:18;12.67;;;10.63;;
18076;SDS011;9165;45.714;11.362;2023-03-14T13:44:45;18.27;;;11.40;;
18076;SDS011;9165;45.714;11.362;2023-03-14T13:47:13;12.73;;;10.53;;
18076;SDS011;9165;45.714;11.362;2023-03-14T13:49:41;17.33;;;10.40;;
18076;SDS011;9165;45.714;11.362;2023-03-14T13:52:22;13.57;;;10.17;;
18076;SDS011;9165;45.714;11.362;2023-03-14T13:54:52;16.77;;;10.13;;
18076;SDS011;9165;45.714;11.362;2023-03-14T13:57:18;13.47;;;10.37;;
18076;SDS011;9165;45.714;11.362;2023-03-14T13:59:47;13.33;;;9.33;;
18076;SDS011;9165;45.714;11.362;2023-03-14T14:02:24;13.70;;;9.40;;
18076;SDS011;9165;45.714;11.362;2023-03-14T14:04:50;15.27;;;11.00;;
18076;SDS011;9165;45.714;11.362;2023-03-14T14:07:17;12.20;;;9.37;;
18076;SDS011;9165;45.714;11.362;2023-03-14T14:09:47;18.20;;;10.87;;
18076;SDS011;9165;45.714;11.362;2023-03-14T14:12:15;13.17;;;9.97;;
18076;SDS011;9165;45.714;11.362;2023-03-14T14:14:42;12.77;;;9.90;;
18076;SDS011;9165;45.714;11.362;2023-03-14T14:17:10;12.43;;;8.77;;
18076;SDS011;9165;45.714;11.362;2023-03-14T14:19:38;10.20;;;8.07;;
18076;SDS011;9165;45.714;11.362;2023-03-14T14:22:05;9.63;;;8.03;;
18076;SDS011;9165;45.714;11.362;2023-03-14T14:24:32;17.60;;;9.93;;
18076;SDS011;9165;45.714;11.362;2023-03-14T14:27:02;11.67;;;8.73;;
18076;SDS011;9165;45.714;11.362;2023-03-14T14:29:34;12.33;;;8.80;;
18076;SDS011;9165;45.714;11.362;2023-03-14T14:32:01;15.00;;;9.63;;
18076;SDS011;9165;45.714;11.362;2023-03-14T14:34:28;19.70;;;11.47;;
18076;SDS011;9165;45.714;11.362;2023-03-14T14:36:55;26.43;;;18.43;;
18076;SDS011;9165;45.714;11.362;2023-03-14T14:39:23;15.73;;;10.93;;
18076;SDS011;9165;45.714;11.362;2023-03-14T14:41:50;15.20;;;9.03;;